This is the latest recevied weather packets stored in our database for station/object OE-11179. If no packets are shown the sender has not sent any weather packets the latest 10 day(s).
| Time | Temp. | Humidity | Pressure | Rain* | Wind** | Luminosity | Snow |
|---|---|---|---|---|---|---|---|
| 1787936731 | 22.78° C | 64% | - | 0 mm | - | - | - |
| 1787936131 | 23.33° C | 62% | - | 0 mm | - | - | - |
| 1787935305 | 23.33° C | 63% | - | 0 mm | - | - | - |
| 1787934932 | 23.89° C | 62% | - | 0 mm | - | - | - |
| 1787934332 | 23.89° C | 59% | - | 0 mm | - | - | - |
| 1787933505 | 24.44° C | 59% | - | 0 mm | - | - | - |
| 1787933132 | 24.44° C | 58% | - | 0 mm | - | - | - |
| 1787932532 | 25° C | 57% | - | 0 mm | - | - | - |
| 1787931705 | 25.56° C | 53% | - | 0 mm | - | - | - |
| 1787931332 | 26.11° C | 51% | - | 0 mm | - | - | - |
| 1787930732 | 26.11° C | 53% | - | 0 mm | - | - | - |
| 1787929905 | 27.22° C | 48% | - | 0 mm | - | - | - |
| 1787929531 | 27.22° C | 43% | - | 0 mm | - | - | - |
| 1787928931 | 27.22° C | 46% | - | 0 mm | - | - | - |
| 1787928105 | 27.22° C | 44% | - | 0 mm | - | - | - |
| 1787927731 | 28.33° C | 41% | - | 0 mm | - | - | - |
| 1787927131 | 28.33° C | 42% | - | 0 mm | - | - | - |
| 1787926305 | 28.33° C | 40% | - | 0 mm | - | - | - |
| 1787925932 | 28.89° C | 37% | - | 0 mm | - | - | - |
| 1787925332 | 28.89° C | 41% | - | 0 mm | - | - | - |
| 1787924505 | 30° C | 32% | - | 0 mm | - | - | - |
| 1787924132 | 29.44° C | 38% | - | 0 mm | - | - | - |
| 1787923532 | 30° C | 32% | - | 0 mm | - | - | - |
| 1787922703 | 30.56° C | 28% | - | 0 mm | - | - | - |
| 1787922331 | 31.67° C | 25% | - | 0 mm | - | - | - |
* Rain latest hour (hover to see other rain measurements)
** Current wind speed in m/s (hover to see current wind gust speed)